sensor_id;sensor_type;location;lat;lon;timestamp;pressure;altitude;pressure_sealevel;temperature;humidity
20909;BME280;10614;53.198;6.570;2022-12-07T00:00:55;101630.88;;;3.83;100.00
20909;BME280;10614;53.198;6.570;2022-12-07T00:02:56;101636.94;;;3.81;100.00
20909;BME280;10614;53.198;6.570;2022-12-07T00:04:58;101633.47;;;3.81;100.00
20909;BME280;10614;53.198;6.570;2022-12-07T00:07:00;101637.81;;;3.82;100.00
20909;BME280;10614;53.198;6.570;2022-12-07T00:09:03;101643.00;;;3.84;100.00
20909;BME280;10614;53.198;6.570;2022-12-07T00:11:07;101636.09;;;3.84;100.00
20909;BME280;10614;53.198;6.570;2022-12-07T00:13:09;101644.75;;;3.86;100.00
20909;BME280;10614;53.198;6.570;2022-12-07T00:15:11;101639.56;;;3.85;100.00
20909;BME280;10614;53.198;6.570;2022-12-07T00:17:12;101636.06;;;3.86;100.00
20909;BME280;10614;53.198;6.570;2022-12-07T00:19:14;101636.94;;;3.86;100.00
20909;BME280;10614;53.198;6.570;2022-12-07T00:21:17;101632.59;;;3.88;100.00
20909;BME280;10614;53.198;6.570;2022-12-07T00:23:19;101627.41;;;3.90;100.00
20909;BME280;10614;53.198;6.570;2022-12-07T00:25:22;101629.13;;;3.91;100.00
20909;BME280;10614;53.198;6.570;2022-12-07T00:27:24;101631.72;;;3.92;100.00
20909;BME280;10614;53.198;6.570;2022-12-07T00:29:26;101627.41;;;3.94;100.00
20909;BME280;10614;53.198;6.570;2022-12-07T00:31:29;101619.59;;;3.94;100.00
20909;BME280;10614;53.198;6.570;2022-12-07T00:33:31;101628.25;;;3.95;100.00
20909;BME280;10614;53.198;6.570;2022-12-07T00:35:33;101627.38;;;3.93;100.00
20909;BME280;10614;53.198;6.570;2022-12-07T00:37:34;101624.81;;;3.91;100.00
20909;BME280;10614;53.198;6.570;2022-12-07T00:39:36;101626.50;;;3.91;100.00
20909;BME280;10614;53.198;6.570;2022-12-07T00:41:39;101620.47;;;3.89;100.00
20909;BME280;10614;53.198;6.570;2022-12-07T00:43:41;101623.91;;;3.86;100.00
20909;BME280;10614;53.198;6.570;2022-12-07T00:45:43;101629.13;;;3.85;100.00
20909;BME280;10614;53.198;6.570;2022-12-07T00:47:45;101623.91;;;3.81;100.00
20909;BME280;10614;53.198;6.570;2022-12-07T00:49:46;101633.47;;;3.81;100.00
20909;BME280;10614;53.198;6.570;2022-12-07T00:51:48;101610.88;;;3.81;100.00
20909;BME280;10614;53.198;6.570;2022-12-07T00:53:51;101618.69;;;3.81;100.00
20909;BME280;10614;53.198;6.570;2022-12-07T00:55:53;101607.44;;;3.83;100.00
20909;BME280;10614;53.198;6.570;2022-12-07T00:57:57;101612.63;;;3.86;100.00
20909;BME280;10614;53.198;6.570;2022-12-07T00:59:58;101616.97;;;3.88;100.00
20909;BME280;10614;53.198;6.570;2022-12-07T01:02:00;101610.88;;;3.91;100.00
20909;BME280;10614;53.198;6.570;2022-12-07T01:04:03;101610.88;;;3.91;100.00
20909;BME280;10614;53.198;6.570;2022-12-07T01:06:05;101613.50;;;3.95;100.00
20909;BME280;10614;53.198;6.570;2022-12-07T01:08:06;101603.97;;;3.96;100.00
20909;BME280;10614;53.198;6.570;2022-12-07T01:10:08;101610.03;;;3.96;100.00
20909;BME280;10614;53.198;6.570;2022-12-07T01:12:10;101615.22;;;3.99;100.00
20909;BME280;10614;53.198;6.570;2022-12-07T01:14:13;101610.03;;;4.01;100.00
20909;BME280;10614;53.198;6.570;2022-12-07T01:16:15;101620.44;;;4.02;100.00
20909;BME280;10614;53.198;6.570;2022-12-07T01:18:17;101613.50;;;4.05;100.00
20909;BME280;10614;53.198;6.570;2022-12-07T01:20:19;101610.88;;;4.05;100.00
20909;BME280;10614;53.198;6.570;2022-12-07T01:22:20;101612.63;;;4.04;100.00
20909;BME280;10614;53.198;6.570;2022-12-07T01:24:22;101605.69;;;4.06;100.00
20909;BME280;10614;53.198;6.570;2022-12-07T01:26:25;101603.94;;;4.07;100.00
20909;BME280;10614;53.198;6.570;2022-12-07T01:28:27;101602.19;;;4.07;100.00
20909;BME280;10614;53.198;6.570;2022-12-07T01:30:30;101601.34;;;4.08;100.00
20909;BME280;10614;53.198;6.570;2022-12-07T01:32:32;101607.41;;;4.09;100.00
20909;BME280;10614;53.198;6.570;2022-12-07T01:34:34;101616.13;;;4.08;100.00
20909;BME280;10614;53.198;6.570;2022-12-07T01:36:36;101618.69;;;4.09;100.00
20909;BME280;10614;53.198;6.570;2022-12-07T01:38:38;101630.88;;;4.10;100.00
20909;BME280;10614;53.198;6.570;2022-12-07T01:40:40;101620.44;;;4.10;100.00
20909;BME280;10614;53.198;6.570;2022-12-07T01:42:42;101620.44;;;4.10;100.00
20909;BME280;10614;53.198;6.570;2022-12-07T01:45:34;101618.69;;;4.09;100.00
20909;BME280;10614;53.198;6.570;2022-12-07T01:47:37;101628.25;;;4.09;100.00
20909;BME280;10614;53.198;6.570;2022-12-07T01:49:42;101622.19;;;4.04;100.00
20909;BME280;10614;53.198;6.570;2022-12-07T01:51:46;101619.56;;;4.02;100.00
20909;BME280;10614;53.198;6.570;2022-12-07T01:53:49;101625.66;;;4.01;100.00
20909;BME280;10614;53.198;6.570;2022-12-07T01:55:52;101624.78;;;3.99;100.00
20909;BME280;10614;53.198;6.570;2022-12-07T01:57:55;101617.84;;;3.99;100.00
20909;BME280;10614;53.198;6.570;2022-12-07T01:59:58;101623.06;;;3.99;100.00
20909;BME280;10614;53.198;6.570;2022-12-07T02:02:04;101622.19;;;3.99;100.00
20909;BME280;10614;53.198;6.570;2022-12-07T02:04:08;101622.19;;;3.99;100.00
20909;BME280;10614;53.198;6.570;2022-12-07T02:06:14;101618.69;;;4.00;100.00
20909;BME280;10614;53.198;6.570;2022-12-07T02:08:18;101616.09;;;4.00;100.00
20909;BME280;10614;53.198;6.570;2022-12-07T02:10:23;101610.88;;;4.00;100.00
20909;BME280;10614;53.198;6.570;2022-12-07T02:12:25;101611.78;;;3.99;100.00
20909;BME280;10614;53.198;6.570;2022-12-07T02:14:27;101610.91;;;3.98;100.00
20909;BME280;10614;53.198;6.570;2022-12-07T02:16:34;101607.44;;;3.96;100.00
20909;BME280;10614;53.198;6.570;2022-12-07T02:18:52;101613.50;;;3.95;100.00
20909;BME280;10614;53.198;6.570;2022-12-07T02:21:03;101607.44;;;3.93;100.00
20909;BME280;10614;53.198;6.570;2022-12-07T02:23:34;101607.44;;;3.93;100.00
20909;BME280;10614;53.198;6.570;2022-12-07T02:25:52;101603.09;;;3.89;100.00
20909;BME280;10614;53.198;6.570;2022-12-07T02:28:03;101608.28;;;3.88;100.00
20909;BME280;10614;53.198;6.570;2022-12-07T02:30:08;101603.94;;;3.85;100.00
20909;BME280;10614;53.198;6.570;2022-12-07T02:32:13;101612.63;;;3.83;100.00
20909;BME280;10614;53.198;6.570;2022-12-07T02:34:22;101604.81;;;3.81;100.00
20909;BME280;10614;53.198;6.570;2022-12-07T02:36:30;101601.34;;;3.76;100.00
20909;BME280;10614;53.198;6.570;2022-12-07T02:38:37;101603.09;;;3.77;100.00
20909;BME280;10614;53.198;6.570;2022-12-07T02:40:43;101591.78;;;3.76;100.00
20909;BME280;10614;53.198;6.570;2022-12-07T02:42:48;101605.69;;;3.75;100.00
20909;BME280;10614;53.198;6.570;2022-12-07T02:44:51;101597.91;;;3.77;100.00
20909;BME280;10614;53.198;6.570;2022-12-07T02:46:58;101591.78;;;3.81;100.00
20909;BME280;10614;53.198;6.570;2022-12-07T02:49:03;101591.81;;;3.84;100.00
20909;BME280;10614;53.198;6.570;2022-12-07T02:51:05;101588.34;;;3.87;100.00
20909;BME280;10614;53.198;6.570;2022-12-07T02:53:28;101583.09;;;3.88;100.00
20909;BME280;10614;53.198;6.570;2022-12-07T02:55:34;101582.25;;;3.88;100.00
20909;BME280;10614;53.198;6.570;2022-12-07T02:57:49;101584.84;;;3.88;100.00
20909;BME280;10614;53.198;6.570;2022-12-07T03:00:01;101580.53;;;3.87;100.00
20909;BME280;10614;53.198;6.570;2022-12-07T03:02:14;101574.44;;;3.88;100.00
20909;BME280;10614;53.198;6.570;2022-12-07T03:04:30;101577.91;;;3.88;100.00
20909;BME280;10614;53.198;6.570;2022-12-07T03:06:39;101574.44;;;3.88;100.00
20909;BME280;10614;53.198;6.570;2022-12-07T03:08:51;101556.19;;;3.88;100.00
20909;BME280;10614;53.198;6.570;2022-12-07T03:10:59;101564.00;;;3.88;100.00
20909;BME280;10614;53.198;6.570;2022-12-07T03:13:05;101560.56;;;3.89;100.00
20909;BME280;10614;53.198;6.570;2022-12-07T03:15:12;101561.41;;;3.88;100.00
20909;BME280;10614;53.198;6.570;2022-12-07T03:17:20;101564.91;;;3.87;100.00
20909;BME280;10614;53.198;6.570;2022-12-07T03:19:25;101565.75;;;3.87;100.00
20909;BME280;10614;53.198;6.570;2022-12-07T03:21:31;101577.03;;;3.86;100.00
20909;BME280;10614;53.198;6.570;2022-12-07T03:23:35;101575.28;;;3.84;100.00
20909;BME280;10614;53.198;6.570;2022-12-07T03:25:41;101584.00;;;3.84;100.00
20909;BME280;10614;53.198;6.570;2022-12-07T03:27:48;101603.09;;;3.85;100.00
20909;BME280;10614;53.198;6.570;2022-12-07T03:29:55;101592.69;;;3.85;100.00
20909;BME280;10614;53.198;6.570;2022-12-07T03:32:04;101582.25;;;3.85;100.00
20909;BME280;10614;53.198;6.570;2022-12-07T03:34:11;101586.59;;;3.86;100.00
20909;BME280;10614;53.198;6.570;2022-12-07T03:36:21;101576.16;;;3.86;100.00
20909;BME280;10614;53.198;6.570;2022-12-07T03:38:28;101580.50;;;3.85;100.00
20909;BME280;10614;53.198;6.570;2022-12-07T03:40:34;101581.41;;;3.84;100.00
20909;BME280;10614;53.198;6.570;2022-12-07T03:42:36;101580.50;;;3.84;100.00
20909;BME280;10614;53.198;6.570;2022-12-07T03:44:39;101573.56;;;3.83;100.00
20909;BME280;10614;53.198;6.570;2022-12-07T03:46:44;101580.50;;;3.80;100.00
20909;BME280;10614;53.198;6.570;2022-12-07T03:48:55;101577.03;;;3.78;100.00
20909;BME280;10614;53.198;6.570;2022-12-07T03:51:08;101577.03;;;3.78;100.00
20909;BME280;10614;53.198;6.570;2022-12-07T03:53:18;101575.28;;;3.79;100.00
20909;BME280;10614;53.198;6.570;2022-12-07T03:55:25;101584.84;;;3.81;100.00
20909;BME280;10614;53.198;6.570;2022-12-07T03:57:29;101577.03;;;3.78;100.00
20909;BME280;10614;53.198;6.570;2022-12-07T03:59:32;101570.97;;;3.81;100.00
20909;BME280;10614;53.198;6.570;2022-12-07T04:01:35;101572.72;;;3.82;100.00
20909;BME280;10614;53.198;6.570;2022-12-07T04:03:36;101568.38;;;3.83;100.00
20909;BME280;10614;53.198;6.570;2022-12-07T04:05:39;101567.47;;;3.84;100.00
20909;BME280;10614;53.198;6.570;2022-12-07T04:07:42;101564.03;;;3.83;100.00
20909;BME280;10614;53.198;6.570;2022-12-07T04:09:44;101566.63;;;3.83;100.00
20909;BME280;10614;53.198;6.570;2022-12-07T04:11:46;101557.06;;;3.80;100.00
20909;BME280;10614;53.198;6.570;2022-12-07T04:13:47;101569.22;;;3.81;100.00
20909;BME280;10614;53.198;6.570;2022-12-07T04:16:07;101571.84;;;3.80;100.00
20909;BME280;10614;53.198;6.570;2022-12-07T04:18:08;101573.56;;;3.78;100.00
20909;BME280;10614;53.198;6.570;2022-12-07T04:20:11;101577.06;;;3.77;100.00
20909;BME280;10614;53.198;6.570;2022-12-07T04:22:13;101570.97;;;3.76;100.00
20909;BME280;10614;53.198;6.570;2022-12-07T04:24:16;101571.84;;;3.75;100.00
20909;BME280;10614;53.198;6.570;2022-12-07T04:26:18;101570.09;;;3.74;100.00
20909;BME280;10614;53.198;6.570;2022-12-07T04:28:19;101562.28;;;3.74;100.00
20909;BME280;10614;53.198;6.570;2022-12-07T04:30:21;101560.56;;;3.73;100.00
20909;BME280;10614;53.198;6.570;2022-12-07T04:32:23;101568.38;;;3.73;100.00
20909;BME280;10614;53.198;6.570;2022-12-07T04:34:25;101561.44;;;3.72;100.00
20909;BME280;10614;53.198;6.570;2022-12-07T04:36:27;101564.03;;;3.71;100.00
20909;BME280;10614;53.198;6.570;2022-12-07T04:38:28;101569.25;;;3.71;100.00
20909;BME280;10614;53.198;6.570;2022-12-07T04:40:31;101568.38;;;3.69;100.00
20909;BME280;10614;53.198;6.570;2022-12-07T04:42:33;101580.50;;;3.67;100.00
20909;BME280;10614;53.198;6.570;2022-12-07T04:44:35;101572.72;;;3.64;100.00
20909;BME280;10614;53.198;6.570;2022-12-07T04:46:36;101569.22;;;3.62;100.00
20909;BME280;10614;53.198;6.570;2022-12-07T04:48:38;101564.88;;;3.62;100.00
20909;BME280;10614;53.198;6.570;2022-12-07T04:50:39;101571.84;;;3.63;100.00
20909;BME280;10614;53.198;6.570;2022-12-07T04:52:41;101564.03;;;3.63;100.00
20909;BME280;10614;53.198;6.570;2022-12-07T04:54:43;101563.16;;;3.64;100.00
20909;BME280;10614;53.198;6.570;2022-12-07T04:56:46;101551.88;;;3.62;100.00
20909;BME280;10614;53.198;6.570;2022-12-07T04:58:48;101550.16;;;3.61;100.00
20909;BME280;10614;53.198;6.570;2022-12-07T05:00:53;101545.81;;;3.57;100.00
20909;BME280;10614;53.198;6.570;2022-12-07T05:02:55;101547.53;;;3.55;100.00
20909;BME280;10614;53.198;6.570;2022-12-07T05:04:57;101546.66;;;3.54;100.00
20909;BME280;10614;53.198;6.570;2022-12-07T05:06:58;101542.31;;;3.55;100.00
20909;BME280;10614;53.198;6.570;2022-12-07T05:09:00;101542.31;;;3.55;100.00
20909;BME280;10614;53.198;6.570;2022-12-07T05:11:03;101543.19;;;3.52;100.00
20909;BME280;10614;53.198;6.570;2022-12-07T05:13:06;101536.25;;;3.54;100.00
20909;BME280;10614;53.198;6.570;2022-12-07T05:15:09;101540.59;;;3.52;100.00
20909;BME280;10614;53.198;6.570;2022-12-07T05:17:11;101541.44;;;3.53;100.00
20909;BME280;10614;53.198;6.570;2022-12-07T05:19:12;101550.16;;;3.52;100.00
20909;BME280;10614;53.198;6.570;2022-12-07T05:21:14;101555.34;;;3.50;100.00
20909;BME280;10614;53.198;6.570;2022-12-07T05:23:16;101554.47;;;3.48;100.00
20909;BME280;10614;53.198;6.570;2022-12-07T05:25:18;101555.34;;;3.47;100.00
20909;BME280;10614;53.198;6.570;2022-12-07T05:27:20;101553.59;;;3.46;100.00
20909;BME280;10614;53.198;6.570;2022-12-07T05:29:23;101557.06;;;3.44;100.00
20909;BME280;10614;53.198;6.570;2022-12-07T05:31:26;101543.19;;;3.40;100.00
20909;BME280;10614;53.198;6.570;2022-12-07T05:33:28;101544.94;;;3.40;100.00
20909;BME280;10614;53.198;6.570;2022-12-07T05:35:29;101547.53;;;3.38;100.00
20909;BME280;10614;53.198;6.570;2022-12-07T05:37:31;101549.25;;;3.34;100.00
20909;BME280;10614;53.198;6.570;2022-12-07T05:39:32;101552.72;;;3.33;100.00
20909;BME280;10614;53.198;6.570;2022-12-07T05:41:34;101557.91;;;3.32;100.00
20909;BME280;10614;53.198;6.570;2022-12-07T05:43:53;101544.03;;;3.30;100.00
20909;BME280;10614;53.198;6.570;2022-12-07T05:45:57;101540.56;;;3.26;100.00
20909;BME280;10614;53.198;6.570;2022-12-07T05:47:59;101541.44;;;3.22;100.00
20909;BME280;10614;53.198;6.570;2022-12-07T05:50:00;101540.56;;;3.22;100.00
20909;BME280;10614;53.198;6.570;2022-12-07T05:52:02;101539.69;;;3.20;100.00
20909;BME280;10614;53.198;6.570;2022-12-07T05:54:04;101538.81;;;3.16;100.00
20909;BME280;10614;53.198;6.570;2022-12-07T05:56:06;101539.69;;;3.16;100.00
20909;BME280;10614;53.198;6.570;2022-12-07T05:58:08;101537.97;;;3.14;100.00
20909;BME280;10614;53.198;6.570;2022-12-07T06:00:27;101541.44;;;3.11;100.00
20909;BME280;10614;53.198;6.570;2022-12-07T06:02:30;101543.13;;;3.11;100.00
20909;BME280;10614;53.198;6.570;2022-12-07T06:04:34;101535.34;;;3.08;100.00
20909;BME280;10614;53.198;6.570;2022-12-07T06:06:36;101532.72;;;3.06;100.00
20909;BME280;10614;53.198;6.570;2022-12-07T06:08:38;101541.41;;;3.05;100.00
20909;BME280;10614;53.198;6.570;2022-12-07T06:10:39;101557.00;;;3.04;100.00
20909;BME280;10614;53.198;6.570;2022-12-07T06:12:42;101557.84;;;3.00;100.00
20909;BME280;10614;53.198;6.570;2022-12-07T06:14:43;101561.31;;;3.02;100.00
20909;BME280;10614;53.198;6.570;2022-12-07T06:16:45;101561.34;;;3.03;100.00
20909;BME280;10614;53.198;6.570;2022-12-07T06:18:49;101560.47;;;3.06;100.00
20909;BME280;10614;53.198;6.570;2022-12-07T06:20:50;101546.59;;;3.05;100.00
20909;BME280;10614;53.198;6.570;2022-12-07T06:22:52;101545.75;;;3.05;100.00
20909;BME280;10614;53.198;6.570;2022-12-07T06:24:54;101548.34;;;3.06;100.00
20909;BME280;10614;53.198;6.570;2022-12-07T06:26:56;101537.09;;;3.07;100.00
20909;BME280;10614;53.198;6.570;2022-12-07T06:28:58;101537.97;;;3.09;100.00
20909;BME280;10614;53.198;6.570;2022-12-07T06:31:01;101536.22;;;3.10;100.00
20909;BME280;10614;53.198;6.570;2022-12-07T06:33:03;101538.81;;;3.10;100.00
20909;BME280;10614;53.198;6.570;2022-12-07T06:35:08;101530.13;;;3.08;100.00
20909;BME280;10614;53.198;6.570;2022-12-07T06:37:10;101539.69;;;3.10;100.00
20909;BME280;10614;53.198;6.570;2022-12-07T06:39:11;101534.47;;;3.09;100.00
20909;BME280;10614;53.198;6.570;2022-12-07T06:41:13;101531.00;;;3.08;100.00
20909;BME280;10614;53.198;6.570;2022-12-07T06:43:14;101532.72;;;3.06;100.00
20909;BME280;10614;53.198;6.570;2022-12-07T06:45:16;101539.66;;;3.06;100.00
20909;BME280;10614;53.198;6.570;2022-12-07T06:47:18;101531.88;;;3.06;100.00
20909;BME280;10614;53.198;6.570;2022-12-07T06:49:20;101536.22;;;3.05;100.00
20909;BME280;10614;53.198;6.570;2022-12-07T06:51:23;101535.34;;;3.05;100.00
20909;BME280;10614;53.198;6.570;2022-12-07T06:53:25;101537.06;;;3.06;100.00
20909;BME280;10614;53.198;6.570;2022-12-07T06:55:27;101531.00;;;3.05;100.00
20909;BME280;10614;53.198;6.570;2022-12-07T06:57:28;101531.88;;;3.06;100.00
20909;BME280;10614;53.198;6.570;2022-12-07T06:59:30;101535.34;;;3.05;100.00
20909;BME280;10614;53.198;6.570;2022-12-07T07:01:33;101544.00;;;3.05;100.00
20909;BME280;10614;53.198;6.570;2022-12-07T07:03:35;101546.59;;;3.05;100.00
20909;BME280;10614;53.198;6.570;2022-12-07T07:05:37;101557.84;;;3.04;100.00
20909;BME280;10614;53.198;6.570;2022-12-07T07:07:40;101565.69;;;3.03;100.00
20909;BME280;10614;53.198;6.570;2022-12-07T07:09:41;101582.13;;;3.02;100.00
20909;BME280;10614;53.198;6.570;2022-12-07T07:11:43;101595.13;;;3.02;100.00
20909;BME280;10614;53.198;6.570;2022-12-07T07:13:45;101602.06;;;3.00;100.00
20909;BME280;10614;53.198;6.570;2022-12-07T07:15:47;101598.63;;;3.01;100.00
20909;BME280;10614;53.198;6.570;2022-12-07T07:17:49;101591.66;;;2.93;100.00
20909;BME280;10614;53.198;6.570;2022-12-07T07:19:50;101587.31;;;2.89;100.00
20909;BME280;10614;53.198;6.570;2022-12-07T07:21:52;101571.69;;;2.88;100.00
20909;BME280;10614;53.198;6.570;2022-12-07T07:23:55;101577.75;;;2.87;100.00
20909;BME280;10614;53.198;6.570;2022-12-07T07:25:57;101579.50;;;2.89;100.00
20909;BME280;10614;53.198;6.570;2022-12-07T07:27:59;101574.31;;;2.89;100.00
20909;BME280;10614;53.198;6.570;2022-12-07T07:30:01;101564.78;;;2.91;100.00
20909;BME280;10614;53.198;6.570;2022-12-07T07:32:02;101569.09;;;2.92;100.00
20909;BME280;10614;53.198;6.570;2022-12-07T07:34:04;101561.31;;;2.95;100.00
20909;BME280;10614;53.198;6.570;2022-12-07T07:36:06;101554.38;;;2.94;100.00
20909;BME280;10614;53.198;6.570;2022-12-07T07:38:08;101552.66;;;2.95;100.00
20909;BME280;10614;53.198;6.570;2022-12-07T07:40:11;101557.00;;;2.96;100.00
20909;BME280;10614;53.198;6.570;2022-12-07T07:42:13;101556.09;;;2.97;100.00
20909;BME280;10614;53.198;6.570;2022-12-07T07:44:15;101559.59;;;2.98;100.00
20909;BME280;10614;53.198;6.570;2022-12-07T07:46:17;101556.13;;;2.95;100.00
20909;BME280;10614;53.198;6.570;2022-12-07T07:48:18;101558.72;;;2.94;100.00
20909;BME280;10614;53.198;6.570;2022-12-07T07:50:21;101559.59;;;2.93;100.00
20909;BME280;10614;53.198;6.570;2022-12-07T07:52:23;101556.97;;;2.91;100.00
20909;BME280;10614;53.198;6.570;2022-12-07T07:54:25;101556.97;;;2.88;100.00
20909;BME280;10614;53.198;6.570;2022-12-07T07:56:28;101553.47;;;2.88;100.00
20909;BME280;10614;53.198;6.570;2022-12-07T07:58:29;101561.28;;;2.88;100.00
20909;BME280;10614;53.198;6.570;2022-12-07T08:00:31;101558.69;;;2.85;100.00
20909;BME280;10614;53.198;6.570;2022-12-07T08:02:33;101560.41;;;2.83;100.00
20909;BME280;10614;53.198;6.570;2022-12-07T08:04:35;101567.34;;;2.82;100.00
20909;BME280;10614;53.198;6.570;2022-12-07T08:06:37;101565.59;;;2.83;100.00
20909;BME280;10614;53.198;6.570;2022-12-07T08:08:38;101559.53;;;2.81;100.00
20909;BME280;10614;53.198;6.570;2022-12-07T08:10:40;101559.53;;;2.79;100.00
20909;BME280;10614;53.198;6.570;2022-12-07T08:12:43;101547.38;;;2.78;100.00
20909;BME280;10614;53.198;6.570;2022-12-07T08:15:03;101550.88;;;2.79;100.00
20909;BME280;10614;53.198;6.570;2022-12-07T08:17:05;101557.78;;;2.78;100.00
20909;BME280;10614;53.198;6.570;2022-12-07T08:19:06;101554.34;;;2.79;100.00
20909;BME280;10614;53.198;6.570;2022-12-07T08:21:12;101553.47;;;2.79;100.00
20909;BME280;10614;53.198;6.570;2022-12-07T08:23:14;101551.75;;;2.79;100.00
20909;BME280;10614;53.198;6.570;2022-12-07T08:25:16;101547.41;;;2.77;100.00
20909;BME280;10614;53.198;6.570;2022-12-07T08:27:17;101553.44;;;2.75;100.00
20909;BME280;10614;53.198;6.570;2022-12-07T08:29:21;101558.66;;;2.77;100.00
20909;BME280;10614;53.198;6.570;2022-12-07T08:31:23;101556.91;;;2.78;100.00
20909;BME280;10614;53.198;6.570;2022-12-07T08:33:25;101567.31;;;2.78;100.00
20909;BME280;10614;53.198;6.570;2022-12-07T08:35:27;101563.00;;;2.75;100.00
20909;BME280;10614;53.198;6.570;2022-12-07T08:37:28;101569.91;;;2.76;100.00
20909;BME280;10614;53.198;6.570;2022-12-07T08:39:30;101579.44;;;2.75;100.00
20909;BME280;10614;53.198;6.570;2022-12-07T08:41:32;101581.19;;;2.77;100.00
20909;BME280;10614;53.198;6.570;2022-12-07T08:43:34;101588.13;;;2.78;100.00
20909;BME280;10614;53.198;6.570;2022-12-07T08:45:40;101588.13;;;2.79;100.00
20909;BME280;10614;53.198;6.570;2022-12-07T08:47:45;101588.13;;;2.81;100.00
20909;BME280;10614;53.198;6.570;2022-12-07T08:49:50;101583.81;;;2.83;100.00
20909;BME280;10614;53.198;6.570;2022-12-07T08:51:54;101576.00;;;2.83;100.00
20909;BME280;10614;53.198;6.570;2022-12-07T08:53:58;101579.50;;;2.86;100.00
20909;BME280;10614;53.198;6.570;2022-12-07T08:56:02;101578.63;;;2.89;100.00
20909;BME280;10614;53.198;6.570;2022-12-07T08:58:03;101578.66;;;2.90;100.00
20909;BME280;10614;53.198;6.570;2022-12-07T09:00:06;101574.31;;;2.92;100.00
20909;BME280;10614;53.198;6.570;2022-12-07T09:02:09;101576.94;;;2.95;100.00
20909;BME280;10614;53.198;6.570;2022-12-07T09:04:11;101569.13;;;2.97;100.00
20909;BME280;10614;53.198;6.570;2022-12-07T09:06:13;101570.88;;;3.03;100.00
20909;BME280;10614;53.198;6.570;2022-12-07T09:08:15;101565.66;;;3.04;100.00
20909;BME280;10614;53.198;6.570;2022-12-07T09:10:17;101563.94;;;3.08;100.00
20909;BME280;10614;53.198;6.570;2022-12-07T09:12:19;101569.16;;;3.12;100.00
20909;BME280;10614;53.198;6.570;2022-12-07T09:14:21;101568.31;;;3.15;100.00
20909;BME280;10614;53.198;6.570;2022-12-07T09:16:23;101563.09;;;3.18;100.00
20909;BME280;10614;53.198;6.570;2022-12-07T09:18:26;101558.78;;;3.20;100.00
20909;BME280;10614;53.198;6.570;2022-12-07T09:20:28;101559.63;;;3.25;100.00
20909;BME280;10614;53.198;6.570;2022-12-07T09:22:30;101555.31;;;3.27;100.00
20909;BME280;10614;53.198;6.570;2022-12-07T09:24:32;101558.81;;;3.31;100.00
20909;BME280;10614;53.198;6.570;2022-12-07T09:26:33;101560.53;;;3.32;100.00
20909;BME280;10614;53.198;6.570;2022-12-07T09:28:35;101559.66;;;3.36;100.00
20909;BME280;10614;53.198;6.570;2022-12-07T09:30:37;101557.94;;;3.38;100.00
20909;BME280;10614;53.198;6.570;2022-12-07T09:32:39;101555.34;;;3.41;100.00
20909;BME280;10614;53.198;6.570;2022-12-07T09:34:42;101559.66;;;3.44;100.00
20909;BME280;10614;53.198;6.570;2022-12-07T09:36:44;101563.16;;;3.47;100.00
20909;BME280;10614;53.198;6.570;2022-12-07T09:38:45;101566.59;;;3.51;100.00
20909;BME280;10614;53.198;6.570;2022-12-07T09:40:47;101576.16;;;3.58;100.00
20909;BME280;10614;53.198;6.570;2022-12-07T09:42:51;101580.53;;;3.59;100.00
20909;BME280;10614;53.198;6.570;2022-12-07T09:44:54;101579.66;;;3.63;100.00
20909;BME280;10614;53.198;6.570;2022-12-07T09:46:55;101585.72;;;3.67;100.00
20909;BME280;10614;53.198;6.570;2022-12-07T09:48:59;101581.38;;;3.69;100.00
20909;BME280;10614;53.198;6.570;2022-12-07T09:51:03;101584.84;;;3.74;100.00
20909;BME280;10614;53.198;6.570;2022-12-07T09:53:17;101579.66;;;3.74;100.00
20909;BME280;10614;53.198;6.570;2022-12-07T09:55:24;101585.72;;;3.74;100.00
20909;BME280;10614;53.198;6.570;2022-12-07T09:57:30;101581.38;;;3.76;100.00
20909;BME280;10614;53.198;6.570;2022-12-07T09:59:34;101570.09;;;3.73;100.00
20909;BME280;10614;53.198;6.570;2022-12-07T10:01:38;101565.78;;;3.79;100.00
20909;BME280;10614;53.198;6.570;2022-12-07T10:03:50;101557.06;;;3.80;100.00
20909;BME280;10614;53.198;6.570;2022-12-07T10:05:52;101557.06;;;3.80;100.00
20909;BME280;10614;53.198;6.570;2022-12-07T10:07:56;101552.75;;;3.79;100.00
20909;BME280;10614;53.198;6.570;2022-12-07T10:09:58;101553.63;;;3.80;100.00
20909;BME280;10614;53.198;6.570;2022-12-07T10:12:04;101564.00;;;3.81;100.00
20909;BME280;10614;53.198;6.570;2022-12-07T10:14:11;101561.41;;;3.81;100.00
20909;BME280;10614;53.198;6.570;2022-12-07T10:16:32;101564.88;;;3.79;100.00
20909;BME280;10614;53.198;6.570;2022-12-07T10:18:37;101551.88;;;3.82;100.00
20909;BME280;10614;53.198;6.570;2022-12-07T10:20:41;101551.88;;;3.85;100.00
20909;BME280;10614;53.198;6.570;2022-12-07T10:22:59;101557.94;;;3.86;100.00
20909;BME280;10614;53.198;6.570;2022-12-07T10:25:08;101549.28;;;3.87;100.00
20909;BME280;10614;53.198;6.570;2022-12-07T10:27:21;101550.13;;;3.87;100.00
20909;BME280;10614;53.198;6.570;2022-12-07T10:29:24;101556.19;;;3.88;100.00
20909;BME280;10614;53.198;6.570;2022-12-07T10:31:29;101557.97;;;3.89;100.00
20909;BME280;10614;53.198;6.570;2022-12-07T10:33:33;101558.81;;;3.89;100.00
20909;BME280;10614;53.198;6.570;2022-12-07T10:35:43;101557.94;;;3.92;100.00
20909;BME280;10614;53.198;6.570;2022-12-07T10:37:44;101553.59;;;3.94;100.00
20909;BME280;10614;53.198;6.570;2022-12-07T10:39:50;101550.97;;;3.97;100.00
20909;BME280;10614;53.198;6.570;2022-12-07T10:41:56;101545.75;;;4.00;100.00
20909;BME280;10614;53.198;6.570;2022-12-07T10:43:58;101545.75;;;4.05;100.00
20909;BME280;10614;53.198;6.570;2022-12-07T10:46:19;101541.41;;;4.08;100.00
20909;BME280;10614;53.198;6.570;2022-12-07T10:48:28;101531.88;;;4.10;100.00